Terminal Aerodrome Forecast
Issued by NWS Corpus Christi, TX

Home | Current Version | Previous Version | Text Only | Print | Product List | Glossary On
Versions: 1 2 3 4 5 6 7 8 9 10 11 12 13 14 15 16 17 18
000
FTUS44 KCRP 211700
TAFVCT
TAF
KVCT 211725Z 2118/2218 07010KT P6SM FEW050 SCT250
     FM220800 03004KT 4SM BR SKC
     FM221400 07010KT P6SM FEW040=

USA.gov is the U.S. government's official web portal to all federal, state and local government web resources and services.